createdAt,value
2019-04-05T00:00:13.908Z,997.59
2019-04-05T00:01:13.896Z,997.61
2019-04-05T00:02:13.885Z,997.58
2019-04-05T00:03:13.873Z,997.62
2019-04-05T00:04:13.865Z,997.63
2019-04-05T00:05:13.872Z,997.64
2019-04-05T00:06:13.842Z,997.61
2019-04-05T00:07:13.828Z,997.59
2019-04-05T00:08:13.822Z,997.60
2019-04-05T00:09:13.806Z,997.60
2019-04-05T00:10:13.795Z,997.64
2019-04-05T00:11:13.816Z,997.63
2019-04-05T00:12:13.773Z,997.60
2019-04-05T00:13:13.762Z,997.61
2019-04-05T00:14:13.751Z,997.61
2019-04-05T00:15:16.030Z,997.62
2019-04-05T00:16:13.729Z,997.65
2019-04-05T00:17:13.750Z,997.69
2019-04-05T00:18:13.708Z,997.64
2019-04-05T00:19:13.697Z,997.69
2019-04-05T00:20:13.685Z,997.68
2019-04-05T00:21:13.675Z,997.68
2019-04-05T00:22:13.665Z,997.69
2019-04-05T00:23:13.660Z,997.67
2019-04-05T00:24:13.640Z,997.69
2019-04-05T00:25:13.629Z,997.70
2019-04-05T00:26:13.618Z,997.71
2019-04-05T00:27:13.608Z,997.73
2019-04-05T00:28:13.596Z,997.71
2019-04-05T00:29:13.913Z,997.66
2019-04-05T00:30:13.575Z,997.68
2019-04-05T00:31:13.566Z,997.67
2019-04-05T00:32:13.554Z,997.64
2019-04-05T00:33:13.542Z,997.67
2019-04-05T00:34:13.532Z,997.66
2019-04-05T00:35:13.553Z,997.67
2019-04-05T00:36:13.509Z,997.69
2019-04-05T00:37:13.499Z,997.71
2019-04-05T00:38:13.485Z,997.76
2019-04-05T00:39:13.475Z,997.74
2019-04-05T00:40:13.467Z,997.72
2019-04-05T00:41:13.459Z,997.71
2019-04-05T00:42:13.442Z,997.72
2019-04-05T00:43:13.435Z,997.75
2019-04-05T00:44:13.420Z,997.73
2019-04-05T00:45:13.409Z,997.72
2019-04-05T00:46:13.397Z,997.70
2019-04-05T00:47:13.419Z,997.72
2019-04-05T00:48:13.375Z,997.75
2019-04-05T00:49:13.364Z,997.77
2019-04-05T00:50:13.352Z,997.75
2019-04-05T00:51:13.342Z,997.75
2019-04-05T00:52:13.330Z,997.74
2019-04-05T00:53:13.353Z,997.74
2019-04-05T00:54:13.310Z,997.71
2019-04-05T00:55:13.309Z,997.73
2019-04-05T00:56:13.287Z,997.75
2019-04-05T00:57:13.276Z,997.78
2019-04-05T00:58:13.264Z,997.82
2019-04-05T00:59:13.281Z,997.78
2019-04-05T01:00:13.243Z,997.79
2019-04-05T01:01:13.231Z,997.81
2019-04-05T01:02:13.222Z,997.80
2019-04-05T01:03:13.417Z,997.84
2019-04-05T01:04:13.199Z,997.89
2019-04-05T01:05:13.520Z,997.88
2019-04-05T01:06:13.176Z,997.90
2019-04-05T01:07:13.166Z,997.89
2019-04-05T01:08:13.154Z,997.90
2019-04-05T01:09:13.144Z,997.97
2019-04-05T01:10:13.134Z,997.97
2019-04-05T01:11:13.144Z,997.95
2019-04-05T01:12:13.115Z,997.99
2019-04-05T01:13:13.099Z,998.01
2019-04-05T01:14:13.087Z,998.05
2019-04-05T01:15:13.076Z,998.06
2019-04-05T01:16:13.067Z,998.06
2019-04-05T01:17:24.419Z,998.02
2019-04-05T01:18:14.043Z,998.04
2019-04-05T01:19:13.032Z,998.05
2019-04-05T01:20:13.024Z,998.04
2019-04-05T01:21:13.010Z,998.02
2019-04-05T01:22:13.000Z,998.03
2019-04-05T01:23:13.023Z,998.04
2019-04-05T01:24:12.978Z,998.02
2019-04-05T01:25:12.967Z,998.03
2019-04-05T01:26:12.955Z,998.01
2019-04-05T01:27:12.946Z,998.03
2019-04-05T01:28:12.934Z,998.03
2019-04-05T01:29:12.943Z,998.04
2019-04-05T01:30:12.922Z,998.07
2019-04-05T01:31:12.901Z,998.03
2019-04-05T01:32:12.890Z,998.12
2019-04-05T01:33:12.879Z,998.13
2019-04-05T01:34:12.868Z,998.15
2019-04-05T01:35:12.878Z,998.15
2019-04-05T01:36:12.844Z,998.14
2019-04-05T01:37:12.836Z,998.19
2019-04-05T01:38:12.823Z,998.19
2019-04-05T01:39:12.819Z,998.21
2019-04-05T01:40:12.800Z,998.20
2019-04-05T01:41:13.142Z,998.16
2019-04-05T01:42:12.778Z,998.22
2019-04-05T01:43:12.768Z,998.15
2019-04-05T01:44:12.797Z,998.19
2019-04-05T01:45:12.744Z,998.22
2019-04-05T01:46:12.735Z,998.22
2019-04-05T01:47:12.757Z,998.21
2019-04-05T01:48:12.711Z,998.17
2019-04-05T01:49:12.702Z,998.19
2019-04-05T01:50:12.691Z,998.18
2019-04-05T01:51:12.681Z,998.20
2019-04-05T01:52:12.668Z,998.20
2019-04-05T01:53:12.664Z,998.19
2019-04-05T01:54:12.647Z,998.23
2019-04-05T01:55:12.639Z,998.21
2019-04-05T01:56:12.626Z,998.24
2019-04-05T01:57:12.614Z,998.24
2019-04-05T01:58:12.603Z,998.26
2019-04-05T01:59:12.598Z,998.23
2019-04-05T02:00:12.581Z,998.25
2019-04-05T02:01:12.570Z,998.28
2019-04-05T02:02:12.558Z,998.26
2019-04-05T02:03:12.547Z,998.26
2019-04-05T02:04:12.539Z,998.29
2019-04-05T02:05:12.558Z,998.35
2019-04-05T02:06:12.513Z,998.33
2019-04-05T02:07:12.503Z,998.31
2019-04-05T02:08:12.492Z,998.35
2019-04-05T02:09:12.481Z,998.37
2019-04-05T02:10:12.474Z,998.37
2019-04-05T02:11:12.467Z,998.34
2019-04-05T02:12:12.446Z,998.36
2019-04-05T02:13:12.438Z,998.37
2019-04-05T02:14:12.429Z,998.38
2019-04-05T02:15:12.414Z,998.39
2019-04-05T02:16:12.406Z,998.38
2019-04-05T02:17:12.418Z,998.42
2019-04-05T02:18:12.380Z,998.41
2019-04-05T02:19:12.371Z,998.40
2019-04-05T02:20:12.358Z,998.37
2019-04-05T02:21:12.348Z,998.37
2019-04-05T02:22:12.337Z,998.36
2019-04-05T02:23:12.654Z,998.38
2019-04-05T02:24:12.314Z,998.39
2019-04-05T02:25:12.309Z,998.36
2019-04-05T02:26:12.292Z,998.41
2019-04-05T02:27:12.282Z,998.40
2019-04-05T02:28:12.272Z,998.39
2019-04-05T02:29:12.293Z,998.37
2019-04-05T02:30:12.251Z,998.40
2019-04-05T02:31:12.238Z,998.34
2019-04-05T02:32:12.228Z,998.35
2019-04-05T02:33:12.218Z,998.33
2019-04-05T02:34:12.205Z,998.30
2019-04-05T02:35:12.520Z,998.29
2019-04-05T02:36:12.183Z,998.30
2019-04-05T02:37:12.173Z,998.29
2019-04-05T02:38:12.163Z,998.34
2019-04-05T02:39:12.169Z,998.31
2019-04-05T02:40:12.139Z,998.33
2019-04-05T02:41:12.168Z,998.33
2019-04-05T02:42:12.118Z,998.35
2019-04-05T02:43:12.104Z,998.32
2019-04-05T02:44:12.097Z,998.36
2019-04-05T02:45:12.090Z,998.34
2019-04-05T02:46:23.346Z,998.36
2019-04-05T02:47:13.070Z,998.33
2019-04-05T02:48:12.050Z,998.37
2019-04-05T02:49:12.040Z,998.33
2019-04-05T02:50:12.075Z,998.35
2019-04-05T02:51:12.016Z,998.34
2019-04-05T02:52:12.007Z,998.35
2019-04-05T02:53:12.033Z,998.39
2019-04-05T02:54:11.993Z,998.35
2019-04-05T02:55:11.973Z,998.34
2019-04-05T02:56:11.961Z,998.36
2019-04-05T02:57:12.019Z,998.34
2019-04-05T02:58:11.939Z,998.34
2019-04-05T02:59:11.959Z,998.31
2019-04-05T03:00:11.918Z,998.30
2019-04-05T03:01:11.923Z,998.33
2019-04-05T03:02:11.901Z,998.31
2019-04-05T03:03:11.891Z,998.33
2019-04-05T03:04:11.872Z,998.37
2019-04-05T03:05:11.890Z,998.34
2019-04-05T03:06:11.857Z,998.35
2019-04-05T03:07:11.842Z,998.37
2019-04-05T03:08:11.828Z,998.37
2019-04-05T03:09:11.823Z,998.36
2019-04-05T03:10:11.808Z,998.36
2019-04-05T03:11:11.816Z,998.40
2019-04-05T03:12:11.784Z,998.46
2019-04-05T03:13:11.773Z,998.45
2019-04-05T03:14:11.770Z,998.43
2019-04-05T03:15:11.755Z,998.47
2019-04-05T03:16:11.740Z,998.46
2019-04-05T03:17:12.056Z,998.44
2019-04-05T03:18:11.719Z,998.45
2019-04-05T03:19:11.711Z,998.50
2019-04-05T03:20:11.696Z,998.47
2019-04-05T03:21:11.686Z,998.51
2019-04-05T03:22:11.680Z,998.51
2019-04-05T03:23:11.709Z,998.51
2019-04-05T03:24:11.658Z,998.57
2019-04-05T03:25:11.642Z,998.52
2019-04-05T03:26:11.631Z,998.60
2019-04-05T03:27:11.622Z,998.58
2019-04-05T03:28:11.609Z,998.63
2019-04-05T03:29:11.623Z,998.63
2019-04-05T03:30:11.587Z,998.67
2019-04-05T03:31:11.750Z,998.69
2019-04-05T03:32:11.571Z,998.67
2019-04-05T03:33:11.558Z,998.67
2019-04-05T03:34:11.551Z,998.68
2019-04-05T03:35:11.553Z,998.66
2019-04-05T03:36:11.518Z,998.66
2019-04-05T03:37:11.508Z,998.70
2019-04-05T03:38:11.497Z,998.65
2019-04-05T03:39:11.486Z,998.67
2019-04-05T03:40:11.475Z,998.75
2019-04-05T03:41:11.803Z,998.73
2019-04-05T03:42:11.467Z,998.75
2019-04-05T03:43:11.444Z,998.75
2019-04-05T03:44:11.456Z,998.77
2019-04-05T03:45:11.423Z,998.73
2019-04-05T03:46:11.407Z,998.74
2019-04-05T03:47:11.419Z,998.74
2019-04-05T03:48:11.388Z,998.70
2019-04-05T03:49:11.376Z,998.75
2019-04-05T03:50:11.369Z,998.76
2019-04-05T03:51:11.355Z,998.77
2019-04-05T03:52:11.342Z,998.77
2019-04-05T03:53:11.359Z,998.84
2019-04-05T03:54:11.456Z,998.79
2019-04-05T03:55:11.309Z,998.80
2019-04-05T03:56:11.302Z,998.82
2019-04-05T03:57:11.287Z,998.79
2019-04-05T03:58:11.276Z,998.79
2019-04-05T03:59:11.273Z,998.83
2019-04-05T04:00:11.255Z,998.82
2019-04-05T04:01:11.242Z,998.85
2019-04-05T04:02:11.231Z,998.86
2019-04-05T04:03:11.225Z,998.82
2019-04-05T04:04:11.213Z,998.81
2019-04-05T04:05:11.230Z,998.87
2019-04-05T04:06:11.196Z,998.84
2019-04-05T04:07:11.247Z,998.88
2019-04-05T04:08:11.165Z,998.87
2019-04-05T04:09:11.154Z,998.91
2019-04-05T04:10:11.146Z,998.88
2019-04-05T04:11:11.157Z,998.88
2019-04-05T04:12:11.124Z,998.87
2019-04-05T04:13:11.111Z,998.93
2019-04-05T04:14:11.099Z,998.91
2019-04-05T04:15:13.770Z,998.95
2019-04-05T04:16:11.084Z,998.98
2019-04-05T04:17:13.225Z,998.99
2019-04-05T04:18:11.054Z,999.01
2019-04-05T04:19:11.044Z,999.04
2019-04-05T04:20:11.032Z,999.01
2019-04-05T04:21:11.021Z,999.04
2019-04-05T04:22:11.011Z,999.09
2019-04-05T04:23:11.440Z,999.06
2019-04-05T04:24:10.991Z,999.09
2019-04-05T04:25:10.976Z,999.09
2019-04-05T04:26:10.965Z,999.08
2019-04-05T04:27:10.956Z,999.14
2019-04-05T04:28:10.945Z,999.17
2019-04-05T04:29:10.954Z,999.14
2019-04-05T04:30:10.922Z,999.21
2019-04-05T04:31:10.913Z,999.21
2019-04-05T04:32:10.900Z,999.23
2019-04-05T04:33:10.889Z,999.26
2019-04-05T04:34:10.883Z,999.24
2019-04-05T04:35:10.899Z,999.28
2019-04-05T04:36:13.070Z,999.26
2019-04-05T04:37:10.844Z,999.29
2019-04-05T04:38:10.837Z,999.33
2019-04-05T04:39:10.821Z,999.32
2019-04-05T04:40:10.815Z,999.36
2019-04-05T04:41:10.808Z,999.36
2019-04-05T04:42:10.789Z,999.38
2019-04-05T04:43:10.777Z,999.38
2019-04-05T04:44:10.787Z,999.39
2019-04-05T04:45:12.617Z,999.41
2019-04-05T04:46:10.746Z,999.44
2019-04-05T04:47:10.750Z,999.47
2019-04-05T04:48:10.723Z,999.45
2019-04-05T04:49:10.711Z,999.46
2019-04-05T04:50:10.700Z,999.51
2019-04-05T04:51:10.688Z,999.47
2019-04-05T04:52:10.678Z,999.47
2019-04-05T04:53:10.958Z,999.48
2019-04-05T04:54:10.655Z,999.49
2019-04-05T04:55:10.644Z,999.51
2019-04-05T04:56:10.636Z,999.48
2019-04-05T04:57:10.623Z,999.49
2019-04-05T04:58:10.612Z,999.58
2019-04-05T04:59:10.923Z,999.61
2019-04-05T05:00:10.589Z,999.61
2019-04-05T05:01:10.579Z,999.66
2019-04-05T05:02:10.571Z,999.64
2019-04-05T05:03:10.565Z,999.72
2019-04-05T05:04:10.544Z,999.69
2019-04-05T05:05:10.801Z,999.69
2019-04-05T05:06:10.524Z,999.69
2019-04-05T05:07:10.511Z,999.71
2019-04-05T05:08:10.501Z,999.74
2019-04-05T05:09:10.490Z,999.80
2019-04-05T05:10:10.479Z,999.77
2019-04-05T05:11:14.832Z,999.75
2019-04-05T05:12:10.458Z,999.77
2019-04-05T05:13:10.446Z,999.80
2019-04-05T05:14:10.448Z,999.80
2019-04-05T05:15:10.426Z,999.80
2019-04-05T05:16:10.413Z,999.81
2019-04-05T05:17:10.675Z,999.79
2019-04-05T05:18:10.390Z,999.77
2019-04-05T05:19:10.386Z,999.72
2019-04-05T05:20:10.368Z,999.80
2019-04-05T05:21:10.357Z,999.77
2019-04-05T05:22:10.346Z,999.76
2019-04-05T05:23:10.609Z,999.79
2019-04-05T05:24:10.504Z,999.83
2019-04-05T05:25:10.313Z,999.80
2019-04-05T05:26:10.307Z,999.79
2019-04-05T05:27:10.292Z,999.84
2019-04-05T05:28:10.279Z,999.86
2019-04-05T05:29:10.548Z,999.87
2019-04-05T05:30:10.258Z,999.88
2019-04-05T05:31:10.246Z,999.84
2019-04-05T05:32:10.272Z,999.85
2019-04-05T05:33:10.225Z,999.84
2019-04-05T05:34:10.213Z,999.87
2019-04-05T05:35:10.489Z,999.91
2019-04-05T05:36:10.553Z,999.93
2019-04-05T05:37:10.182Z,999.95
2019-04-05T05:38:10.169Z,999.98
2019-04-05T05:39:10.158Z,1000.04
2019-04-05T05:40:10.148Z,1000.09
2019-04-05T05:41:10.155Z,1000.04
2019-04-05T05:42:10.125Z,1000.09
2019-04-05T05:43:10.115Z,1000.11
2019-04-05T05:44:10.103Z,1000.13
2019-04-05T05:45:10.099Z,1000.18
2019-04-05T05:46:10.081Z,1000.15
2019-04-05T05:47:10.085Z,1000.22
2019-04-05T05:48:10.058Z,1000.25
2019-04-05T05:49:10.047Z,1000.25
2019-04-05T05:50:10.039Z,1000.24
2019-04-05T05:51:10.026Z,1000.24
2019-04-05T05:52:10.014Z,1000.25
2019-04-05T05:53:10.023Z,1000.25
2019-04-05T05:54:09.991Z,1000.19
2019-04-05T05:55:09.981Z,1000.32
2019-04-05T05:56:09.970Z,1000.33
2019-04-05T05:57:09.959Z,1000.32
2019-04-05T05:58:09.947Z,1000.34
2019-04-05T05:59:09.945Z,1000.29
2019-04-05T06:00:09.926Z,1000.36
2019-04-05T06:01:09.915Z,1000.35
2019-04-05T06:02:09.906Z,1000.32
2019-04-05T06:03:11.357Z,1000.38
2019-04-05T06:04:12.659Z,1000.38
2019-04-05T06:05:10.152Z,1000.39
2019-04-05T06:06:09.860Z,1000.32
2019-04-05T06:07:09.848Z,1000.35
2019-04-05T06:08:09.839Z,1000.39
2019-04-05T06:09:09.826Z,1000.39
2019-04-05T06:10:09.816Z,1000.41
2019-04-05T06:11:10.141Z,1000.47
2019-04-05T06:12:09.793Z,1000.45
2019-04-05T06:13:09.782Z,1000.51
2019-04-05T06:14:09.771Z,1000.47
2019-04-05T06:15:09.761Z,1000.49
2019-04-05T06:16:09.749Z,1000.51
2019-04-05T06:17:10.019Z,1000.55
2019-04-05T06:18:12.067Z,1000.58
2019-04-05T06:19:09.720Z,1000.60
2019-04-05T06:20:09.706Z,1000.55
2019-04-05T06:21:09.694Z,1000.61
2019-04-05T06:22:09.683Z,1000.57
2019-04-05T06:23:09.681Z,1000.61
2019-04-05T06:24:09.661Z,1000.65
2019-04-05T06:25:09.650Z,1000.64
2019-04-05T06:26:09.750Z,1000.69
2019-04-05T06:27:09.627Z,1000.67
2019-04-05T06:28:09.615Z,1000.68
2019-04-05T06:29:09.878Z,1000.71
2019-04-05T06:30:09.597Z,1000.74
2019-04-05T06:31:09.583Z,1000.70
2019-04-05T06:32:09.572Z,1000.75
2019-04-05T06:33:09.562Z,1000.76
2019-04-05T06:34:09.554Z,1000.74
2019-04-05T06:35:09.547Z,1000.78
2019-04-05T06:36:09.535Z,1000.80
2019-04-05T06:37:09.517Z,1000.78
2019-04-05T06:38:09.506Z,1000.81
2019-04-05T06:39:09.494Z,1000.81
2019-04-05T06:40:09.486Z,1000.83
2019-04-05T06:41:09.753Z,1000.78
2019-04-05T06:42:09.461Z,1000.78
2019-04-05T06:43:09.451Z,1000.83
2019-04-05T06:44:09.439Z,1000.82
2019-04-05T06:45:09.428Z,1000.83
2019-04-05T06:46:09.420Z,1000.82
2019-04-05T06:47:09.698Z,1000.87
2019-04-05T06:48:18.955Z,1000.91
2019-04-05T06:49:10.382Z,1000.89
2019-04-05T06:50:09.374Z,1000.94
2019-04-05T06:51:09.362Z,1000.96
2019-04-05T06:52:09.350Z,1000.99
2019-04-05T06:53:09.347Z,1001.00
2019-04-05T06:54:09.329Z,1001.09
2019-04-05T06:55:09.320Z,1001.12
2019-04-05T06:56:09.306Z,1001.10
2019-04-05T06:57:09.295Z,1001.11
2019-04-05T06:58:10.529Z,1001.09
2019-04-05T06:59:09.281Z,1001.13
2019-04-05T07:00:09.263Z,1001.08
2019-04-05T07:01:09.252Z,1001.08
2019-04-05T07:02:09.241Z,1001.14
2019-04-05T07:03:09.231Z,1001.17
2019-04-05T07:04:09.219Z,1001.14
2019-04-05T07:05:09.496Z,1001.18
2019-04-05T07:06:09.195Z,1001.18
2019-04-05T07:07:09.185Z,1001.21
2019-04-05T07:08:09.174Z,1001.26
2019-04-05T07:09:09.163Z,1001.32
2019-04-05T07:10:09.154Z,1001.33
2019-04-05T07:11:09.425Z,1001.35
2019-04-05T07:12:09.129Z,1001.33
2019-04-05T07:13:09.255Z,1001.38
2019-04-05T07:14:09.147Z,1001.35
2019-04-05T07:15:09.097Z,1001.33
2019-04-05T07:16:11.125Z,1001.33
2019-04-05T07:17:09.369Z,1001.35
2019-04-05T07:18:09.065Z,1001.37
2019-04-05T07:19:09.052Z,1001.34
2019-04-05T07:20:09.041Z,1001.32
2019-04-05T07:21:09.031Z,1001.33
2019-04-05T07:22:09.024Z,1001.40
2019-04-05T07:23:09.285Z,1001.47
2019-04-05T07:24:08.998Z,1001.46
2019-04-05T07:25:08.988Z,1001.50
2019-04-05T07:26:08.975Z,1001.53
2019-04-05T07:27:08.964Z,1001.54
2019-04-05T07:28:08.953Z,1001.56
2019-04-05T07:29:09.217Z,1001.58
2019-04-05T07:30:08.941Z,1001.61
2019-04-05T07:31:08.924Z,1001.57
2019-04-05T07:32:08.908Z,1001.56
2019-04-05T07:33:08.905Z,1001.55
2019-04-05T07:34:08.886Z,1001.62
2019-04-05T07:35:09.171Z,1001.62
2019-04-05T07:36:08.869Z,1001.70
2019-04-05T07:37:08.857Z,1001.72
2019-04-05T07:38:09.841Z,1001.78
2019-04-05T07:39:08.831Z,1001.79
2019-04-05T07:40:08.824Z,1001.80
2019-04-05T07:41:09.092Z,1001.77
2019-04-05T07:42:08.798Z,1001.78
2019-04-05T07:43:08.787Z,1001.80
2019-04-05T07:44:08.777Z,1001.88
2019-04-05T07:45:08.765Z,1001.88
2019-04-05T07:46:08.758Z,1001.91
2019-04-05T07:47:09.091Z,1001.89
2019-04-05T07:48:08.733Z,1001.91
2019-04-05T07:49:08.721Z,1001.93
2019-04-05T07:50:08.713Z,1001.86
2019-04-05T07:51:08.701Z,1001.89
2019-04-05T07:52:08.687Z,1001.94
2019-04-05T07:53:09.357Z,1001.99
2019-04-05T07:54:08.666Z,1001.94
2019-04-05T07:55:08.661Z,1001.96
2019-04-05T07:56:08.645Z,1002.00
2019-04-05T07:57:08.632Z,1001.94
2019-04-05T07:58:08.621Z,1001.95
2019-04-05T07:59:08.617Z,1001.91
2019-04-05T08:00:08.599Z,1001.89
2019-04-05T08:01:08.589Z,1001.90
2019-04-05T08:02:08.579Z,1001.87
2019-04-05T08:03:08.566Z,1001.90
2019-04-05T08:04:08.555Z,1001.89
2019-04-05T08:05:08.556Z,1001.86
2019-04-05T08:06:08.533Z,1001.88
2019-04-05T08:07:08.523Z,1001.99
2019-04-05T08:08:08.511Z,1002.02
2019-04-05T08:09:08.503Z,1002.02
2019-04-05T08:10:08.489Z,1002.05
2019-04-05T08:11:08.490Z,1002.02
2019-04-05T08:12:08.467Z,1001.98
2019-04-05T08:13:08.456Z,1002.06
2019-04-05T08:14:08.444Z,1001.98
2019-04-05T08:15:08.435Z,1001.96
2019-04-05T08:16:08.422Z,1002.00
2019-04-05T08:17:08.456Z,1001.98
2019-04-05T08:18:08.401Z,1002.01
2019-04-05T08:19:08.389Z,1002.00
2019-04-05T08:20:08.379Z,1002.02
2019-04-05T08:21:08.371Z,1002.02
2019-04-05T08:22:08.357Z,1001.95
2019-04-05T08:23:08.622Z,1001.91
2019-04-05T08:24:08.333Z,1001.89
2019-04-05T08:25:08.326Z,1001.88
2019-04-05T08:26:08.311Z,1001.89
2019-04-05T08:27:08.301Z,1001.93
2019-04-05T08:28:08.290Z,1001.96
2019-04-05T08:29:09.092Z,1001.92
2019-04-05T08:30:08.267Z,1001.94
2019-04-05T08:31:10.725Z,1001.97
2019-04-05T08:32:14.562Z,1001.97
2019-04-05T08:33:09.233Z,1001.93
2019-04-05T08:34:08.223Z,1001.98
2019-04-05T08:35:08.497Z,1001.96
2019-04-05T08:36:08.202Z,1001.96
2019-04-05T08:37:08.190Z,1002.00
2019-04-05T08:38:08.180Z,1002.02
2019-04-05T08:39:08.171Z,1002.01
2019-04-05T08:40:08.157Z,1002.07
2019-04-05T08:41:08.420Z,1002.02
2019-04-05T08:42:10.674Z,1002.03
2019-04-05T08:43:08.123Z,1002.06
2019-04-05T08:44:08.113Z,1002.03
2019-04-05T08:45:08.102Z,1002.02
2019-04-05T08:46:08.090Z,1002.12
2019-04-05T08:47:08.361Z,1002.10
2019-04-05T08:48:08.067Z,1002.09
2019-04-05T08:49:10.919Z,1002.07
2019-04-05T08:50:08.046Z,1002.12
2019-04-05T08:51:08.036Z,1002.09
2019-04-05T08:52:08.024Z,1002.10
2019-04-05T08:53:08.030Z,1002.12
2019-04-05T08:54:08.003Z,1002.03
2019-04-05T08:55:07.996Z,1001.98
2019-04-05T08:56:07.979Z,1001.99
2019-04-05T08:57:07.967Z,1001.97
2019-04-05T08:58:07.959Z,1001.93
2019-04-05T08:59:08.225Z,1001.95
2019-04-05T09:00:07.933Z,1002.01
2019-04-05T09:01:07.923Z,1002.01
2019-04-05T09:02:07.913Z,1002.07
2019-04-05T09:03:07.901Z,1002.08
2019-04-05T09:04:07.906Z,1002.10
2019-04-05T09:05:08.165Z,1002.13
2019-04-05T09:06:07.869Z,1002.12
2019-04-05T09:07:07.858Z,1002.11
2019-04-05T09:08:07.846Z,1002.14
2019-04-05T09:09:07.834Z,1002.21
2019-04-05T09:10:07.823Z,1002.16
2019-04-05T09:11:08.089Z,1002.17
2019-04-05T09:12:07.802Z,1002.21
2019-04-05T09:13:07.792Z,1002.27
2019-04-05T09:14:07.779Z,1002.22
2019-04-05T09:15:07.769Z,1002.24
2019-04-05T09:16:07.757Z,1002.24
2019-04-05T09:17:08.033Z,1002.28
2019-04-05T09:18:07.734Z,1002.26
2019-04-05T09:19:07.723Z,1002.37
2019-04-05T09:20:07.714Z,1002.33
2019-04-05T09:21:10.024Z,1002.33
2019-04-05T09:22:07.690Z,1002.28
2019-04-05T09:23:08.004Z,1002.35
2019-04-05T09:24:07.668Z,1002.23
2019-04-05T09:25:07.658Z,1002.34
2019-04-05T09:26:07.646Z,1002.28
2019-04-05T09:27:07.638Z,1002.26
2019-04-05T09:28:07.627Z,1002.34
2019-04-05T09:29:09.261Z,1002.31
2019-04-05T09:30:07.602Z,1002.38
2019-04-05T09:31:07.591Z,1002.40
2019-04-05T09:32:07.583Z,1002.39
2019-04-05T09:33:07.569Z,1002.39
2019-04-05T09:34:07.559Z,1002.34
2019-04-05T09:35:07.816Z,1002.36
2019-04-05T09:36:07.543Z,1002.32
2019-04-05T09:37:07.524Z,1002.37
2019-04-05T09:38:07.517Z,1002.37
2019-04-05T09:39:07.502Z,1002.42
2019-04-05T09:40:07.491Z,1002.43
2019-04-05T09:41:07.756Z,1002.44
2019-04-05T09:42:07.468Z,1002.41
2019-04-05T09:43:07.462Z,1002.40
2019-04-05T09:44:07.482Z,1002.47
2019-04-05T09:45:07.436Z,1002.46
2019-04-05T09:46:07.430Z,1002.45
2019-04-05T09:47:07.697Z,1002.48
2019-04-05T09:48:07.403Z,1002.50
2019-04-05T09:49:07.406Z,1002.46
2019-04-05T09:50:07.385Z,1002.50
2019-04-05T09:51:07.395Z,1002.52
2019-04-05T09:52:07.359Z,1002.49
2019-04-05T09:53:07.368Z,1002.46
2019-04-05T09:54:07.336Z,1002.55
2019-04-05T09:55:07.326Z,1002.53
2019-04-05T09:56:07.318Z,1002.54
2019-04-05T09:57:07.303Z,1002.56
2019-04-05T09:58:09.956Z,1002.56
2019-04-05T09:59:07.557Z,1002.52
2019-04-05T10:00:07.271Z,1002.56
2019-04-05T10:01:07.259Z,1002.54
2019-04-05T10:02:07.250Z,1002.62
2019-04-05T10:03:07.239Z,1002.66
2019-04-05T10:04:07.225Z,1002.70
2019-04-05T10:05:07.503Z,1002.77
2019-04-05T10:06:07.204Z,1002.78
2019-04-05T10:07:07.192Z,1002.74
2019-04-05T10:08:07.186Z,1002.73
2019-04-05T10:09:07.171Z,1002.69
2019-04-05T10:10:07.160Z,1002.75
2019-04-05T10:11:07.422Z,1002.81
2019-04-05T10:12:07.142Z,1002.79
2019-04-05T10:13:09.598Z,1002.78
2019-04-05T10:14:07.117Z,1002.84
2019-04-05T10:15:07.105Z,1002.84
2019-04-05T10:16:07.092Z,1002.83
2019-04-05T10:17:07.357Z,1002.81
2019-04-05T10:18:07.071Z,1002.82
2019-04-05T10:19:07.060Z,1002.85
2019-04-05T10:20:07.048Z,1002.81
2019-04-05T10:21:07.040Z,1002.81
2019-04-05T10:22:07.027Z,1002.81
2019-04-05T10:23:07.290Z,1002.82
2019-04-05T10:24:07.005Z,1002.81
2019-04-05T10:25:06.996Z,1002.83
2019-04-05T10:26:06.983Z,1002.84
2019-04-05T10:27:06.973Z,1002.84
2019-04-05T10:28:06.962Z,1002.88
2019-04-05T10:29:06.969Z,1002.85
2019-04-05T10:30:06.939Z,1002.84
2019-04-05T10:31:06.927Z,1002.85
2019-04-05T10:32:06.917Z,1002.89
2019-04-05T10:33:06.905Z,1002.88
2019-04-05T10:34:06.893Z,1002.85
2019-04-05T10:35:06.890Z,1002.88
2019-04-05T10:36:06.871Z,1002.86
2019-04-05T10:37:06.861Z,1002.86
2019-04-05T10:38:06.850Z,1002.90
2019-04-05T10:39:06.840Z,1002.90
2019-04-05T10:40:06.828Z,1002.92
2019-04-05T10:41:07.099Z,1002.98
2019-04-05T10:42:06.805Z,1002.93
2019-04-05T10:43:06.797Z,1002.93
2019-04-05T10:44:06.784Z,1002.92
2019-04-05T10:45:06.807Z,1002.89
2019-04-05T10:46:06.762Z,1002.90
2019-04-05T10:47:07.021Z,1002.88
2019-04-05T10:48:06.739Z,1002.89
2019-04-05T10:49:06.730Z,1002.89
2019-04-05T10:50:06.717Z,1002.97
2019-04-05T10:51:06.706Z,1002.94
2019-04-05T10:52:06.694Z,1002.96
2019-04-05T10:53:06.957Z,1002.94
2019-04-05T10:54:09.301Z,1002.96
2019-04-05T10:55:06.665Z,1002.98
2019-04-05T10:56:06.650Z,1002.96
2019-04-05T10:57:06.642Z,1002.95
2019-04-05T10:58:06.629Z,1003.01
2019-04-05T10:59:06.625Z,1002.99
2019-04-05T11:00:06.607Z,1003.06
2019-04-05T11:01:06.596Z,1003.00
2019-04-05T11:02:06.587Z,1003.00
2019-04-05T11:03:06.573Z,1002.95
2019-04-05T11:04:06.569Z,1003.02
2019-04-05T11:05:06.564Z,1003.02
2019-04-05T11:06:06.541Z,1003.04
2019-04-05T11:07:06.532Z,1003.02
2019-04-05T11:08:06.521Z,1003.08
2019-04-05T11:09:06.507Z,1003.07
2019-04-05T11:10:06.496Z,1003.06
2019-04-05T11:11:06.758Z,1003.10
2019-04-05T11:12:08.637Z,1003.07
2019-04-05T11:13:06.469Z,1003.12
2019-04-05T11:14:13.560Z,1003.14
2019-04-05T11:15:07.441Z,1003.16
2019-04-05T11:16:06.428Z,1003.17
2019-04-05T11:17:06.761Z,1003.18
2019-04-05T11:18:06.408Z,1003.15
2019-04-05T11:19:06.395Z,1003.13
2019-04-05T11:20:20.248Z,1003.13
2019-04-05T11:21:07.374Z,1003.13
2019-04-05T11:22:06.372Z,1003.11
2019-04-05T11:23:06.637Z,1003.09
2019-04-05T11:24:06.346Z,1003.03
2019-04-05T11:25:06.331Z,1003.04
2019-04-05T11:26:06.318Z,1003.03
2019-04-05T11:27:06.832Z,1003.09
2019-04-05T11:28:06.297Z,1003.04
2019-04-05T11:29:06.294Z,1003.07
2019-04-05T11:30:06.276Z,1003.09
2019-04-05T11:31:06.264Z,1003.09
2019-04-05T11:32:06.258Z,1003.08
2019-04-05T11:33:06.245Z,1003.07
2019-04-05T11:34:06.231Z,1003.03
2019-04-05T11:35:06.493Z,1003.12
2019-04-05T11:36:06.210Z,1003.06
2019-04-05T11:37:06.200Z,1003.06
2019-04-05T11:38:06.190Z,1003.06
2019-04-05T11:39:06.176Z,1003.10
2019-04-05T11:40:06.166Z,1003.11
2019-04-05T11:41:06.429Z,1003.20
2019-04-05T11:42:06.143Z,1003.20
2019-04-05T11:43:06.132Z,1003.15
2019-04-05T11:44:06.121Z,1003.17
2019-04-05T11:45:06.109Z,1003.16
2019-04-05T11:46:06.099Z,1003.17
2019-04-05T11:47:06.361Z,1003.17
2019-04-05T11:48:06.079Z,1003.17
2019-04-05T11:49:06.066Z,1003.18
2019-04-05T11:50:06.056Z,1003.18
2019-04-05T11:51:06.044Z,1003.22
2019-04-05T11:52:06.033Z,1003.22
2019-04-05T11:53:06.295Z,1003.19
2019-04-05T11:54:06.016Z,1003.21
2019-04-05T11:55:05.999Z,1003.16
2019-04-05T11:56:14.422Z,1003.17
2019-04-05T11:57:06.975Z,1003.16
2019-04-05T11:58:05.966Z,1003.09
2019-04-05T11:59:06.762Z,1003.09
2019-04-05T12:00:05.946Z,1003.12
2019-04-05T12:01:05.937Z,1003.19
2019-04-05T12:02:05.923Z,1003.20
2019-04-05T12:03:05.911Z,1003.11
2019-04-05T12:04:05.900Z,1003.14
2019-04-05T12:05:06.176Z,1003.20
2019-04-05T12:06:05.879Z,1003.13
2019-04-05T12:07:05.870Z,1003.16
2019-04-05T12:08:05.856Z,1003.12
2019-04-05T12:09:05.845Z,1003.15
2019-04-05T12:10:05.836Z,1003.16
2019-04-05T12:11:05.833Z,1003.13
2019-04-05T12:12:05.813Z,1003.23
2019-04-05T12:13:05.800Z,1003.23
2019-04-05T12:14:05.791Z,1003.16
2019-04-05T12:15:06.474Z,1003.18
2019-04-05T12:16:06.736Z,1003.19